Time;durP1;ratioP1;P1;durP2;ratioP2;P2;SDS_P1;SDS_P2;PMS_P1;PMS_P2;Temp;Humidity;BMP_temperature;BMP_pressure;BME280_temperature;BME280_humidity;BME280_pressure;Samples;Min_cycle;Max_cycle;Signal;HPM_P1;HPM_P2
2024/01/07 00:00:25;;;;;;;42.80;22.70;;;;;;;;;;2066431;28;20034;-76
2024/01/07 00:01:48;;;;;;;33.00;20.23;;;;;;;;;;2068446;28;20038;-76
2024/01/07 00:03:08;;;;;;;38.80;20.88;;;;;;;;;;2066170;28;20026;-76
2024/01/07 00:04:29;;;;;;;30.58;18.85;;;;;;;;;;2069705;28;20018;-77
2024/01/07 00:05:50;;;;;;;33.17;19.67;;;;;;;;;;2071996;28;20045;-77
2024/01/07 00:07:11;;;;;;;31.83;18.88;;;;;;;;;;2054564;28;20499;-76
2024/01/07 00:08:32;;;;;;;33.55;20.75;;;;;;;;;;2066059;28;20096;-76
2024/01/07 00:09:53;;;;;;;30.80;19.65;;;;;;;;;;2064290;28;20037;-76
2024/01/07 00:11:15;;;;;;;32.72;20.05;;;;;;;;;;2066740;28;20038;-77
2024/01/07 00:12:36;;;;;;;30.85;18.55;;;;;;;;;;2060240;28;20031;-78
2024/01/07 00:13:57;;;;;;;34.67;21.08;;;;;;;;;;2067841;28;20390;-77
2024/01/07 00:15:17;;;;;;;28.75;17.98;;;;;;;;;;2063502;28;20053;-76
2024/01/07 00:16:39;;;;;;;32.33;19.05;;;;;;;;;;2071361;28;20022;-76
2024/01/07 00:18:00;;;;;;;31.40;19.25;;;;;;;;;;2073423;28;20049;-77
2024/01/07 00:19:21;;;;;;;31.65;19.80;;;;;;;;;;2065314;28;20035;-77
2024/01/07 00:20:43;;;;;;;30.95;19.33;;;;;;;;;;2062453;28;20031;-77
2024/01/07 00:22:03;;;;;;;30.95;18.73;;;;;;;;;;2058092;28;20047;-77
2024/01/07 00:23:24;;;;;;;37.08;19.38;;;;;;;;;;2059813;28;20034;-77
2024/01/07 00:24:45;;;;;;;30.52;18.90;;;;;;;;;;2068004;28;20634;-76
2024/01/07 00:26:06;;;;;;;31.42;19.05;;;;;;;;;;2062572;28;20112;-76
2024/01/07 00:27:27;;;;;;;33.92;19.70;;;;;;;;;;2068491;28;20030;-76
2024/01/07 00:28:48;;;;;;;34.20;20.08;;;;;;;;;;2072195;28;20517;-76
2024/01/07 00:30:09;;;;;;;35.47;21.15;;;;;;;;;;2067691;28;20035;-76
2024/01/07 00:31:30;;;;;;;31.15;19.55;;;;;;;;;;2072081;28;20046;-77
2024/01/07 00:32:51;;;;;;;31.70;19.13;;;;;;;;;;2071990;28;20030;-76
2024/01/07 00:34:12;;;;;;;29.35;19.00;;;;;;;;;;2072042;28;20374;-77
2024/01/07 00:35:33;;;;;;;32.42;18.35;;;;;;;;;;2072507;28;20030;-77
2024/01/07 00:36:54;;;;;;;29.40;18.60;;;;;;;;;;2064162;28;20038;-77
2024/01/07 00:38:15;;;;;;;31.25;19.15;;;;;;;;;;2070202;28;20389;-77
2024/01/07 00:39:36;;;;;;;31.83;19.63;;;;;;;;;;2062646;28;20315;-77
2024/01/07 00:40:56;;;;;;;32.03;19.67;;;;;;;;;;2071033;28;20029;-77
2024/01/07 00:42:17;;;;;;;30.05;18.63;;;;;;;;;;2060717;28;20157;-76
2024/01/07 00:43:38;;;;;;;32.35;19.67;;;;;;;;;;2059530;28;20073;-77
2024/01/07 00:44:59;;;;;;;39.30;21.83;;;;;;;;;;2065174;28;20048;-77
2024/01/07 00:46:20;;;;;;;32.47;20.00;;;;;;;;;;2070866;28;20085;-77
2024/01/07 00:47:41;;;;;;;33.53;21.20;;;;;;;;;;2065405;28;20034;-77
2024/01/07 00:49:02;;;;;;;34.70;19.60;;;;;;;;;;2060181;28;20089;-75
2024/01/07 00:50:23;;;;;;;34.20;20.23;;;;;;;;;;2068292;28;20030;-76
2024/01/07 00:51:44;;;;;;;34.35;20.75;;;;;;;;;;2069098;28;20041;-75
2024/01/07 00:53:06;;;;;;;36.50;20.13;;;;;;;;;;2067433;28;20041;-76
2024/01/07 00:54:27;;;;;;;32.55;19.15;;;;;;;;;;2069414;28;20034;-76
2024/01/07 00:55:48;;;;;;;33.03;19.25;;;;;;;;;;2068870;28;20034;-76
2024/01/07 00:57:10;;;;;;;34.75;20.33;;;;;;;;;;2070626;28;20022;-76
2024/01/07 00:58:31;;;;;;;38.58;19.42;;;;;;;;;;2066936;28;20022;-76
2024/01/07 00:59:51;;;;;;;37.83;21.25;;;;;;;;;;2070087;28;20520;-77
2024/01/07 01:01:13;;;;;;;40.50;21.95;;;;;;;;;;2056165;28;20073;-76
2024/01/07 01:02:35;;;;;;;39.05;21.65;;;;;;;;;;2065410;28;20038;-76
2024/01/07 01:03:57;;;;;;;38.13;20.10;;;;;;;;;;2063094;28;20442;-75
2024/01/07 01:05:18;;;;;;;38.83;19.27;;;;;;;;;;2067629;28;20382;-76
2024/01/07 01:06:39;;;;;;;38.22;20.48;;;;;;;;;;2067342;28;20022;-76
2024/01/07 01:08:00;;;;;;;36.65;19.92;;;;;;;;;;2068317;28;20100;-76
2024/01/07 01:09:21;;;;;;;37.10;20.83;;;;;;;;;;2070977;28;20038;-76
2024/01/07 01:10:42;;;;;;;44.45;23.95;;;;;;;;;;2071199;28;20531;-76
2024/01/07 01:12:03;;;;;;;38.75;21.15;;;;;;;;;;2070037;28;20100;-76
2024/01/07 01:13:24;;;;;;;34.47;20.15;;;;;;;;;;2071121;28;20022;-76
2024/01/07 01:14:45;;;;;;;40.75;22.95;;;;;;;;;;2056367;28;20031;-76
2024/01/07 01:16:06;;;;;;;41.30;21.35;;;;;;;;;;2067084;28;20406;-76
2024/01/07 01:17:26;;;;;;;43.22;23.85;;;;;;;;;;2062553;28;20133;-76
2024/01/07 01:18:47;;;;;;;42.70;22.80;;;;;;;;;;2059308;28;20046;-76
2024/01/07 01:20:08;;;;;;;45.33;25.42;;;;;;;;;;2057999;28;20375;-76
2024/01/07 01:21:29;;;;;;;46.35;24.30;;;;;;;;;;2067441;28;20033;-76
2024/01/07 01:22:50;;;;;;;47.33;24.33;;;;;;;;;;2069315;28;20047;-75
2024/01/07 01:24:12;;;;;;;43.58;22.13;;;;;;;;;;2062953;28;20755;-76
2024/01/07 01:25:33;;;;;;;41.78;21.45;;;;;;;;;;2061905;28;20022;-76
2024/01/07 01:26:54;;;;;;;42.83;22.52;;;;;;;;;;2059405;28;20062;-76
2024/01/07 01:28:15;;;;;;;44.72;24.10;;;;;;;;;;2059795;28;20505;-77
2024/01/07 01:29:35;;;;;;;46.22;23.70;;;;;;;;;;2064787;28;20037;-76
2024/01/07 01:30:57;;;;;;;46.10;24.60;;;;;;;;;;2073230;28;20037;-76
2024/01/07 01:32:18;;;;;;;44.80;23.88;;;;;;;;;;2062581;28;20501;-76
2024/01/07 01:33:38;;;;;;;45.45;22.35;;;;;;;;;;2067940;28;20033;-76
2024/01/07 01:34:59;;;;;;;49.17;23.55;;;;;;;;;;2068461;28;20028;-75
2024/01/07 01:36:20;;;;;;;40.00;23.20;;;;;;;;;;2064416;28;20034;-76
2024/01/07 01:37:41;;;;;;;41.40;22.17;;;;;;;;;;2056941;28;20098;-76
2024/01/07 01:39:02;;;;;;;46.35;21.10;;;;;;;;;;2062203;28;20026;-76
2024/01/07 01:40:23;;;;;;;46.75;24.83;;;;;;;;;;2061903;28;20090;-76
2024/01/07 01:41:44;;;;;;;43.83;23.63;;;;;;;;;;2063199;28;20458;-75
2024/01/07 01:43:05;;;;;;;44.13;23.80;;;;;;;;;;2065848;28;20030;-76
2024/01/07 01:44:27;;;;;;;40.35;21.35;;;;;;;;;;2071041;28;20023;-76
2024/01/07 01:45:48;;;;;;;49.40;24.67;;;;;;;;;;2071343;28;20029;-76
2024/01/07 01:47:10;;;;;;;44.08;23.35;;;;;;;;;;2070599;28;20417;-76
2024/01/07 01:48:31;;;;;;;42.88;23.08;;;;;;;;;;2065656;28;20026;-76
2024/01/07 01:49:52;;;;;;;46.28;22.70;;;;;;;;;;2072994;28;20042;-76
2024/01/07 01:51:12;;;;;;;39.58;22.10;;;;;;;;;;2069146;28;20502;-75
2024/01/07 01:52:35;;;;;;;38.63;22.40;;;;;;;;;;2060083;28;20039;-76
2024/01/07 01:53:57;;;;;;;;;;;;;;;;;;2070729;28;20053;-77
2024/01/07 01:55:18;;;;;;;46.28;22.30;;;;;;;;;;2072968;28;19905;-76
2024/01/07 01:56:39;;;;;;;45.70;21.73;;;;;;;;;;2064730;28;20037;-76
2024/01/07 01:58:03;;;;;;;46.13;21.77;;;;;;;;;;2067460;28;20026;-76
2024/01/07 01:59:25;;;;;;;43.65;22.40;;;;;;;;;;2059984;28;20026;-76
2024/01/07 02:00:46;;;;;;;41.17;22.17;;;;;;;;;;2065181;28;20030;-76
2024/01/07 02:02:07;;;;;;;42.58;22.63;;;;;;;;;;2068327;28;20042;-76
2024/01/07 02:03:28;;;;;;;47.53;23.15;;;;;;;;;;2069940;28;20359;-76
2024/01/07 02:04:49;;;;;;;55.72;26.27;;;;;;;;;;2068600;28;20410;-76
2024/01/07 02:06:11;;;;;;;50.90;23.95;;;;;;;;;;2063672;28;20045;-76
2024/01/07 02:07:33;;;;;;;46.83;23.90;;;;;;;;;;2067651;28;20421;-75
2024/01/07 02:08:54;;;;;;;47.15;22.98;;;;;;;;;;2061838;28;20054;-76
2024/01/07 02:10:15;;;;;;;51.05;25.48;;;;;;;;;;2068562;28;20045;-76
2024/01/07 02:11:36;;;;;;;48.80;24.02;;;;;;;;;;2060645;28;20045;-76
2024/01/07 02:12:57;;;;;;;49.67;25.00;;;;;;;;;;2066620;28;20042;-76
2024/01/07 02:14:18;;;;;;;54.75;26.02;;;;;;;;;;2070118;28;20027;-76
2024/01/07 02:15:39;;;;;;;50.83;25.40;;;;;;;;;;2061596;28;20026;-76
2024/01/07 02:17:00;;;;;;;47.78;24.63;;;;;;;;;;2065604;28;20053;-76
2024/01/07 02:18:21;;;;;;;48.50;22.73;;;;;;;;;;2070657;28;20026;-76
2024/01/07 02:19:41;;;;;;;47.25;24.58;;;;;;;;;;2059828;28;20485;-75
2024/01/07 02:21:02;;;;;;;48.20;24.42;;;;;;;;;;2067233;28;20064;-76
2024/01/07 02:22:23;;;;;;;49.67;24.98;;;;;;;;;;2068092;28;20038;-76
2024/01/07 02:23:44;;;;;;;47.40;25.30;;;;;;;;;;2070439;28;20394;-76
2024/01/07 02:25:06;;;;;;;53.53;25.58;;;;;;;;;;2060308;28;20100;-77
2024/01/07 02:26:27;;;;;;;48.78;23.02;;;;;;;;;;2057439;28;20561;-76
2024/01/07 02:27:48;;;;;;;51.90;26.70;;;;;;;;;;2058727;28;20118;-76
2024/01/07 02:29:09;;;;;;;51.13;24.83;;;;;;;;;;2057825;28;20031;-75
2024/01/07 02:30:30;;;;;;;60.72;29.42;;;;;;;;;;2066784;28;20519;-75
2024/01/07 02:31:50;;;;;;;59.30;27.25;;;;;;;;;;2063881;28;20049;-76
2024/01/07 02:33:11;;;;;;;56.28;26.00;;;;;;;;;;2064929;28;20406;-76
2024/01/07 02:34:32;;;;;;;57.70;26.10;;;;;;;;;;2070274;28;20046;-76
2024/01/07 02:35:53;;;;;;;61.90;26.83;;;;;;;;;;2064457;28;20035;-76
2024/01/07 02:37:14;;;;;;;55.95;25.85;;;;;;;;;;2065187;28;20039;-76
2024/01/07 02:38:35;;;;;;;56.42;26.13;;;;;;;;;;2059628;28;20399;-76
2024/01/07 02:39:56;;;;;;;57.72;25.60;;;;;;;;;;2070058;28;20038;-76
2024/01/07 02:41:17;;;;;;;60.15;28.05;;;;;;;;;;2068469;28;20117;-76
2024/01/07 02:42:38;;;;;;;58.50;26.20;;;;;;;;;;2065016;28;20043;-76
2024/01/07 02:43:58;;;;;;;61.90;26.70;;;;;;;;;;2072635;28;20555;-75
2024/01/07 02:45:19;;;;;;;58.50;28.58;;;;;;;;;;2068495;28;20041;-75
2024/01/07 02:46:40;;;;;;;61.58;27.15;;;;;;;;;;2070543;28;20061;-75
2024/01/07 02:48:01;;;;;;;57.42;26.02;;;;;;;;;;2066318;28;20046;-76
2024/01/07 02:49:22;;;;;;;50.83;25.55;;;;;;;;;;2065849;28;20038;-75
2024/01/07 02:50:43;;;;;;;54.63;25.42;;;;;;;;;;2071281;28;20029;-75
2024/01/07 02:52:04;;;;;;;61.97;26.92;;;;;;;;;;2071516;28;20417;-76
2024/01/07 02:53:25;;;;;;;54.63;25.15;;;;;;;;;;2073841;28;20033;-78
2024/01/07 02:54:45;;;;;;;60.33;27.10;;;;;;;;;;2072979;28;20033;-75
2024/01/07 02:56:08;;;;;;;62.28;26.65;;;;;;;;;;2073715;28;20030;-76
2024/01/07 02:57:29;;;;;;;56.10;25.65;;;;;;;;;;2072936;28;20034;-76
2024/01/07 02:58:50;;;;;;;65.93;28.92;;;;;;;;;;2066123;28;20023;-76
2024/01/07 03:00:11;;;;;;;62.05;28.63;;;;;;;;;;2068578;28;20486;-76
2024/01/07 03:01:32;;;;;;;50.50;26.17;;;;;;;;;;2066643;28;20034;-76
2024/01/07 03:02:53;;;;;;;58.90;27.50;;;;;;;;;;2061149;28;20050;-76
2024/01/07 03:04:15;;;;;;;50.45;25.23;;;;;;;;;;2066623;28;20034;-77
2024/01/07 03:05:36;;;;;;;;;;;;;;;;;;2069683;28;20101;-76
2024/01/07 03:06:57;;;;;;;56.55;26.50;;;;;;;;;;2064075;28;19910;-76
2024/01/07 03:08:18;;;;;;;51.70;24.75;;;;;;;;;;2064456;28;20490;-76
2024/01/07 03:09:39;;;;;;;50.35;25.35;;;;;;;;;;2065708;28;20038;-76
2024/01/07 03:11:04;;;;;;;51.45;25.23;;;;;;;;;;2071895;28;20089;-76
2024/01/07 03:12:25;;;;;;;57.60;26.20;;;;;;;;;;2068995;28;20108;-77
2024/01/07 03:13:45;;;;;;;52.47;25.45;;;;;;;;;;2073605;28;20030;-76
2024/01/07 03:15:08;;;;;;;50.85;24.05;;;;;;;;;;2065469;28;20394;-77
2024/01/07 03:16:29;;;;;;;48.10;24.67;;;;;;;;;;2060995;28;20030;-76
2024/01/07 03:17:50;;;;;;;45.22;22.98;;;;;;;;;;2062930;28;20482;-76
2024/01/07 03:19:11;;;;;;;50.13;23.83;;;;;;;;;;2066813;28;20033;-76
2024/01/07 03:20:32;;;;;;;54.63;25.52;;;;;;;;;;2070263;28;20084;-77
2024/01/07 03:21:53;;;;;;;54.95;24.50;;;;;;;;;;2069187;28;20038;-76
2024/01/07 03:23:14;;;;;;;47.33;23.27;;;;;;;;;;2071927;28;20493;-76
2024/01/07 03:24:34;;;;;;;46.63;24.42;;;;;;;;;;2071236;28;20084;-76
2024/01/07 03:25:57;;;;;;;41.97;22.55;;;;;;;;;;2064844;28;20034;-76
2024/01/07 03:27:18;;;;;;;45.53;24.23;;;;;;;;;;2067550;28;20119;-76
2024/01/07 03:28:39;;;;;;;43.17;23.25;;;;;;;;;;2070844;28;20026;-76
2024/01/07 03:30:00;;;;;;;50.53;24.10;;;;;;;;;;2070158;28;20076;-76
2024/01/07 03:31:23;;;;;;;46.03;24.02;;;;;;;;;;2073278;28;20030;-76
2024/01/07 03:32:43;;;;;;;46.72;23.85;;;;;;;;;;2069460;28;20034;-76
2024/01/07 03:34:04;;;;;;;51.20;25.27;;;;;;;;;;2070435;28;20072;-76
2024/01/07 03:35:25;;;;;;;48.83;24.75;;;;;;;;;;2068833;28;20457;-76
2024/01/07 03:36:46;;;;;;;51.78;27.08;;;;;;;;;;2066397;28;20077;-76
2024/01/07 03:38:07;;;;;;;48.50;23.75;;;;;;;;;;2068525;28;20050;-76
2024/01/07 03:39:28;;;;;;;52.45;24.80;;;;;;;;;;2072670;28;20030;-76
2024/01/07 03:40:49;;;;;;;46.65;23.20;;;;;;;;;;2068838;28;20100;-76
2024/01/07 03:42:11;;;;;;;50.28;23.05;;;;;;;;;;2067703;28;20449;-76
2024/01/07 03:43:32;;;;;;;43.38;22.33;;;;;;;;;;2062600;28;20105;-76
2024/01/07 03:44:53;;;;;;;47.28;23.73;;;;;;;;;;2066990;28;20460;-76
2024/01/07 03:46:14;;;;;;;39.95;23.30;;;;;;;;;;2060497;28;20034;-76
2024/01/07 03:47:35;;;;;;;44.63;21.70;;;;;;;;;;2064640;28;20038;-76
2024/01/07 03:48:56;;;;;;;46.63;22.85;;;;;;;;;;2062352;28;20070;-75
2024/01/07 03:50:17;;;;;;;44.80;23.95;;;;;;;;;;2067141;28;20026;-76
2024/01/07 03:51:38;;;;;;;43.78;21.85;;;;;;;;;;2062173;28;20089;-76
2024/01/07 03:52:58;;;;;;;43.15;22.77;;;;;;;;;;2065211;28;20104;-76
2024/01/07 03:54:19;;;;;;;41.47;22.27;;;;;;;;;;2071329;28;20030;-76
2024/01/07 03:55:40;;;;;;;46.75;24.10;;;;;;;;;;2062528;28;20092;-76
2024/01/07 03:57:01;;;;;;;44.10;22.67;;;;;;;;;;2065898;28;20434;-76
2024/01/07 03:58:22;;;;;;;39.40;20.88;;;;;;;;;;2069983;28;20157;-75
2024/01/07 03:59:43;;;;;;;40.03;21.02;;;;;;;;;;2069273;28;20022;-76
2024/01/07 04:01:04;;;;;;;43.78;21.15;;;;;;;;;;2068719;28;20457;-76
2024/01/07 04:02:25;;;;;;;45.65;22.75;;;;;;;;;;2068223;28;20045;-76
2024/01/07 04:03:46;;;;;;;40.22;22.15;;;;;;;;;;2068718;28;20037;-76
2024/01/07 04:05:09;;;;;;;42.83;22.08;;;;;;;;;;2071262;28;20038;-76
2024/01/07 04:06:30;;;;;;;51.88;24.70;;;;;;;;;;2070772;28;20029;-77
2024/01/07 04:07:51;;;;;;;43.15;22.17;;;;;;;;;;2068968;28;20453;-76
2024/01/07 04:09:11;;;;;;;50.33;24.77;;;;;;;;;;2071320;28;20039;-76
2024/01/07 04:10:32;;;;;;;49.92;24.70;;;;;;;;;;2072433;28;20034;-76
2024/01/07 04:11:53;;;;;;;47.20;22.50;;;;;;;;;;2070935;28;20037;-76
2024/01/07 04:13:14;;;;;;;45.67;23.02;;;;;;;;;;2070865;28;20056;-75
2024/01/07 04:14:35;;;;;;;48.83;23.25;;;;;;;;;;2068427;28;20033;-76
2024/01/07 04:15:56;;;;;;;39.75;23.13;;;;;;;;;;2070517;28;21460;-76
2024/01/07 04:17:17;;;;;;;43.70;22.70;;;;;;;;;;2064935;28;20030;-76
2024/01/07 04:18:38;;;;;;;39.58;21.52;;;;;;;;;;2060770;28;20038;-76
2024/01/07 04:19:58;;;;;;;46.53;22.92;;;;;;;;;;2065172;28;20397;-76
2024/01/07 04:21:20;;;;;;;46.08;24.15;;;;;;;;;;2069414;28;20033;-75
2024/01/07 04:22:40;;;;;;;41.35;23.05;;;;;;;;;;2070029;28;20042;-76
2024/01/07 04:24:01;;;;;;;40.22;22.65;;;;;;;;;;2061352;28;20776;-76
2024/01/07 04:25:23;;;;;;;34.85;21.05;;;;;;;;;;2061176;28;20442;-76
2024/01/07 04:26:44;;;;;;;40.78;20.38;;;;;;;;;;2066300;28;20026;-76
2024/01/07 04:28:05;;;;;;;36.20;20.38;;;;;;;;;;2068906;28;20398;-76
2024/01/07 04:29:25;;;;;;;41.67;23.80;;;;;;;;;;2073693;28;20060;-76
2024/01/07 04:30:48;;;;;;;34.63;19.85;;;;;;;;;;2074037;28;20033;-76
2024/01/07 04:32:09;;;;;;;39.35;21.67;;;;;;;;;;2069641;28;20394;-76
2024/01/07 04:33:30;;;;;;;35.67;18.95;;;;;;;;;;2071312;28;20049;-76
2024/01/07 04:34:51;;;;;;;36.05;20.20;;;;;;;;;;2068692;28;20030;-76
2024/01/07 04:36:12;;;;;;;36.60;18.58;;;;;;;;;;2060687;28;20034;-76
2024/01/07 04:37:33;;;;;;;34.75;20.42;;;;;;;;;;2068710;28;20084;-76
2024/01/07 04:38:54;;;;;;;36.78;18.73;;;;;;;;;;2066805;28;20049;-76
2024/01/07 04:40:15;;;;;;;36.67;21.17;;;;;;;;;;2062555;28;20025;-76
2024/01/07 04:41:36;;;;;;;33.40;19.23;;;;;;;;;;2061387;28;20125;-75
2024/01/07 04:42:56;;;;;;;37.13;19.33;;;;;;;;;;2070364;28;20485;-77
2024/01/07 04:44:17;;;;;;;34.22;20.15;;;;;;;;;;2064866;28;20057;-76
2024/01/07 04:45:38;;;;;;;32.47;20.05;;;;;;;;;;2066006;28;20034;-76
2024/01/07 04:46:59;;;;;;;32.13;19.73;;;;;;;;;;2068935;28;20034;-76
2024/01/07 04:48:20;;;;;;;30.15;18.48;;;;;;;;;;2073752;28;20034;-76
2024/01/07 04:49:41;;;;;;;29.23;17.92;;;;;;;;;;2066955;28;20041;-76
2024/01/07 04:51:02;;;;;;;29.95;18.25;;;;;;;;;;2069405;28;20440;-76
2024/01/07 04:52:23;;;;;;;29.73;17.40;;;;;;;;;;2062450;28;20038;-76
2024/01/07 04:53:44;;;;;;;31.45;19.67;;;;;;;;;;2071716;28;20088;-77
2024/01/07 04:55:05;;;;;;;28.27;16.90;;;;;;;;;;2063075;28;20046;-76
2024/01/07 04:56:26;;;;;;;28.27;18.60;;;;;;;;;;2066467;28;20030;-76
2024/01/07 04:57:46;;;;;;;27.42;17.92;;;;;;;;;;2071603;28;20037;-76
2024/01/07 04:59:07;;;;;;;29.02;17.73;;;;;;;;;;2069376;28;20510;-76
2024/01/07 05:00:28;;;;;;;29.02;18.23;;;;;;;;;;2067951;28;20418;-76
2024/01/07 05:01:49;;;;;;;29.85;19.33;;;;;;;;;;2060719;28;20022;-77
2024/01/07 05:03:10;;;;;;;28.27;18.88;;;;;;;;;;2067233;28;20445;-76
2024/01/07 05:04:31;;;;;;;27.08;18.88;;;;;;;;;;2067806;28;20041;-76
2024/01/07 05:05:52;;;;;;;34.63;19.15;;;;;;;;;;2070921;28;20266;-77
2024/01/07 05:07:13;;;;;;;33.83;21.92;;;;;;;;;;2069801;28;20034;-76
2024/01/07 05:08:34;;;;;;;28.25;17.83;;;;;;;;;;2061276;28;20062;-77
2024/01/07 05:09:55;;;;;;;29.10;18.27;;;;;;;;;;2059900;28;20033;-76
2024/01/07 05:11:17;;;;;;;33.75;19.80;;;;;;;;;;2059047;28;20085;-76
2024/01/07 05:12:38;;;;;;;28.30;18.98;;;;;;;;;;2063406;28;20054;-76
2024/01/07 05:13:59;;;;;;;29.15;18.95;;;;;;;;;;2060332;28;20034;-76
2024/01/07 05:15:20;;;;;;;27.25;18.17;;;;;;;;;;2066531;28;20026;-76
2024/01/07 05:16:41;;;;;;;26.65;18.25;;;;;;;;;;2070716;28;20085;-75
2024/01/07 05:18:02;;;;;;;27.70;18.88;;;;;;;;;;2071281;28;20037;-75
2024/01/07 05:19:23;;;;;;;29.42;17.63;;;;;;;;;;2069721;28;20037;-78
2024/01/07 05:20:44;;;;;;;31.42;18.77;;;;;;;;;;2070541;28;20026;-75
2024/01/07 05:22:05;;;;;;;25.55;15.68;;;;;;;;;;2065508;28;20093;-75
2024/01/07 05:23:26;;;;;;;28.40;20.15;;;;;;;;;;2064363;28;20124;-74
2024/01/07 05:24:46;;;;;;;32.90;19.73;;;;;;;;;;2068453;28;20037;-75
2024/01/07 05:26:07;;;;;;;28.73;18.58;;;;;;;;;;2070492;28;20350;-75
2024/01/07 05:27:28;;;;;;;25.55;18.13;;;;;;;;;;2063104;28;20133;-75
2024/01/07 05:28:49;;;;;;;33.17;20.52;;;;;;;;;;2057253;28;20550;-75
2024/01/07 05:30:11;;;;;;;31.65;18.92;;;;;;;;;;2057985;28;20041;-75
2024/01/07 05:31:31;;;;;;;29.13;18.00;;;;;;;;;;2058635;28;20053;-75
2024/01/07 05:32:52;;;;;;;27.08;18.52;;;;;;;;;;2057408;28;20112;-75
2024/01/07 05:34:13;;;;;;;29.05;19.08;;;;;;;;;;2058777;28;20517;-75
2024/01/07 05:35:34;;;;;;;29.23;19.67;;;;;;;;;;2067591;28;20029;-76
2024/01/07 05:36:55;;;;;;;25.77;18.25;;;;;;;;;;2068506;28;20342;-75
2024/01/07 05:38:16;;;;;;;28.48;18.52;;;;;;;;;;2062434;28;20530;-75
2024/01/07 05:39:37;;;;;;;26.23;19.50;;;;;;;;;;2066509;28;20038;-75
2024/01/07 05:40:58;;;;;;;25.98;18.42;;;;;;;;;;2069168;28;20037;-76
2024/01/07 05:42:19;;;;;;;26.90;17.80;;;;;;;;;;2061312;28;20030;-75
2024/01/07 05:43:40;;;;;;;24.38;18.02;;;;;;;;;;2059824;28;20042;-76
2024/01/07 05:45:02;;;;;;;24.38;16.75;;;;;;;;;;2070207;28;20026;-75
2024/01/07 05:46:23;;;;;;;26.88;17.65;;;;;;;;;;2071253;28;20033;-75
2024/01/07 05:47:44;;;;;;;27.55;18.63;;;;;;;;;;2066481;28;20022;-75
2024/01/07 05:49:05;;;;;;;26.15;17.65;;;;;;;;;;2068302;28;20110;-75
2024/01/07 05:50:26;;;;;;;25.02;16.58;;;;;;;;;;2063448;28;20030;-76
2024/01/07 05:51:47;;;;;;;25.90;18.20;;;;;;;;;;2069774;28;20026;-75
2024/01/07 05:53:08;;;;;;;26.70;17.95;;;;;;;;;;2063091;28;20046;-75
2024/01/07 05:54:29;;;;;;;27.65;18.02;;;;;;;;;;2061639;28;20165;-74
2024/01/07 05:55:50;;;;;;;23.50;18.17;;;;;;;;;;2069659;28;20041;-75
2024/01/07 05:57:12;;;;;;;22.50;16.40;;;;;;;;;;2062014;28;20244;-75
2024/01/07 05:58:32;;;;;;;27.45;18.70;;;;;;;;;;2060807;28;20038;-75
2024/01/07 05:59:54;;;;;;;28.85;19.55;;;;;;;;;;2068971;28;20026;-75
2024/01/07 06:01:18;;;;;;;26.40;18.10;;;;;;;;;;2072157;28;20018;-75
2024/01/07 06:02:40;;;;;;;25.95;17.95;;;;;;;;;;2065450;28;20479;-75
2024/01/07 06:04:01;;;;;;;27.15;19.15;;;;;;;;;;2071695;28;20347;-75
2024/01/07 06:05:22;;;;;;;28.15;18.85;;;;;;;;;;2072303;28;20502;-75
2024/01/07 06:06:42;;;;;;;26.60;17.95;;;;;;;;;;2072174;28;20038;-75
2024/01/07 06:08:04;;;;;;;26.90;17.83;;;;;;;;;;2067933;28;20088;-76
2024/01/07 06:09:24;;;;;;;24.52;17.70;;;;;;;;;;2064646;28;20102;-76
2024/01/07 06:10:45;;;;;;;31.35;19.52;;;;;;;;;;2061868;28;20046;-76
2024/01/07 06:12:06;;;;;;;23.02;16.25;;;;;;;;;;2057179;28;20042;-76
2024/01/07 06:13:27;;;;;;;30.38;19.00;;;;;;;;;;2065472;28;20041;-76
2024/01/07 06:14:48;;;;;;;25.15;17.85;;;;;;;;;;2069059;28;20106;-76
2024/01/07 06:16:09;;;;;;;25.05;18.17;;;;;;;;;;2062908;28;20027;-76
2024/01/07 06:17:30;;;;;;;26.35;17.60;;;;;;;;;;2061115;28;20030;-76
2024/01/07 06:18:51;;;;;;;26.40;18.23;;;;;;;;;;2066373;28;20343;-76
2024/01/07 06:20:12;;;;;;;28.35;18.90;;;;;;;;;;2070596;28;20034;-76
2024/01/07 06:21:33;;;;;;;27.50;18.50;;;;;;;;;;2072109;28;20045;-76
2024/01/07 06:22:54;;;;;;;28.60;18.15;;;;;;;;;;2066152;28;20038;-76
2024/01/07 06:24:15;;;;;;;31.90;19.20;;;;;;;;;;2063881;28;20058;-76
2024/01/07 06:25:36;;;;;;;29.75;20.33;;;;;;;;;;2068102;28;20477;-76
2024/01/07 06:26:57;;;;;;;25.65;18.27;;;;;;;;;;2069608;28;20037;-76
2024/01/07 06:28:18;;;;;;;30.38;18.27;;;;;;;;;;2064725;28;20083;-76
2024/01/07 06:29:39;;;;;;;26.52;17.75;;;;;;;;;;2059661;28;20442;-76
2024/01/07 06:31:02;;;;;;;27.10;19.63;;;;;;;;;;2068877;28;20026;-76
2024/01/07 06:32:25;;;;;;;28.85;19.70;;;;;;;;;;2072116;28;20029;-76
2024/01/07 06:33:45;;;;;;;;;;;;;;;;;;2070884;28;20049;-76
2024/01/07 06:35:06;;;;;;;26.17;18.45;;;;;;;;;;2073076;28;20361;-76
2024/01/07 06:36:27;;;;;;;27.38;18.17;;;;;;;;;;2061050;28;20085;-76
2024/01/07 06:37:48;;;;;;;21.73;17.38;;;;;;;;;;2068451;28;20037;-76
2024/01/07 06:39:09;;;;;;;30.75;19.77;;;;;;;;;;2071549;28;20025;-77
2024/01/07 06:40:30;;;;;;;26.90;18.10;;;;;;;;;;2072136;28;20030;-77
2024/01/07 06:41:51;;;;;;;26.23;17.17;;;;;;;;;;2071626;28;20363;-77
2024/01/07 06:43:12;;;;;;;25.17;18.52;;;;;;;;;;2069941;28;20045;-78
2024/01/07 06:44:33;;;;;;;30.33;18.88;;;;;;;;;;2072161;28;20420;-77
2024/01/07 06:45:54;;;;;;;26.55;17.70;;;;;;;;;;2073061;28;20398;-77
2024/01/07 06:47:15;;;;;;;28.42;19.30;;;;;;;;;;2070403;28;20030;-77
2024/01/07 06:48:36;;;;;;;31.08;20.02;;;;;;;;;;2070387;28;20034;-77
2024/01/07 06:49:57;;;;;;;29.13;20.15;;;;;;;;;;2069914;28;20490;-77
2024/01/07 06:51:18;;;;;;;30.83;20.00;;;;;;;;;;2071739;28;20034;-77
2024/01/07 06:52:39;;;;;;;29.05;19.98;;;;;;;;;;2068427;28;20401;-77
2024/01/07 06:54:00;;;;;;;26.95;19.35;;;;;;;;;;2067323;28;20042;-77
2024/01/07 06:55:21;;;;;;;24.45;16.95;;;;;;;;;;2063941;28;20030;-77
2024/01/07 06:56:42;;;;;;;30.38;18.10;;;;;;;;;;2060428;28;20094;-77
2024/01/07 06:58:03;;;;;;;22.73;17.25;;;;;;;;;;2065106;28;20042;-77
2024/01/07 06:59:24;;;;;;;27.40;18.95;;;;;;;;;;2067517;28;20029;-77
2024/01/07 07:00:45;;;;;;;26.88;19.23;;;;;;;;;;2072694;28;20098;-77
2024/01/07 07:02:06;;;;;;;29.10;19.38;;;;;;;;;;2063293;28;20061;-77
2024/01/07 07:03:27;;;;;;;27.92;18.85;;;;;;;;;;2067406;28;20026;-77
2024/01/07 07:04:48;;;;;;;30.48;19.02;;;;;;;;;;2070413;28;20061;-77
2024/01/07 07:06:09;;;;;;;27.00;18.15;;;;;;;;;;2065574;28;20351;-77
2024/01/07 07:07:30;;;;;;;24.67;16.63;;;;;;;;;;2061274;28;20104;-77
2024/01/07 07:08:51;;;;;;;26.02;18.42;;;;;;;;;;2060927;28;20038;-77
2024/01/07 07:10:12;;;;;;;28.45;20.38;;;;;;;;;;2065105;28;20490;-77
2024/01/07 07:11:32;;;;;;;25.98;17.17;;;;;;;;;;2071757;28;20034;-77
2024/01/07 07:12:53;;;;;;;25.27;18.20;;;;;;;;;;2071911;28;20030;-77
2024/01/07 07:14:14;;;;;;;24.38;18.02;;;;;;;;;;2061114;28;20478;-77
2024/01/07 07:15:35;;;;;;;27.00;18.25;;;;;;;;;;2061475;28;20065;-77
2024/01/07 07:16:57;;;;;;;29.30;18.45;;;;;;;;;;2066578;28;20086;-78
2024/01/07 07:18:18;;;;;;;32.75;21.40;;;;;;;;;;2068050;28;20034;-77
2024/01/07 07:19:38;;;;;;;30.73;20.00;;;;;;;;;;2059658;28;20438;-77
2024/01/07 07:20:59;;;;;;;25.23;18.33;;;;;;;;;;2068212;28;20034;-77
2024/01/07 07:22:20;;;;;;;28.13;17.90;;;;;;;;;;2069235;28;20017;-77
2024/01/07 07:23:41;;;;;;;26.50;18.35;;;;;;;;;;2061945;28;20089;-76
2024/01/07 07:25:02;;;;;;;29.08;18.77;;;;;;;;;;2067455;28;20034;-77
2024/01/07 07:26:23;;;;;;;26.45;18.10;;;;;;;;;;2063283;28;20027;-77
2024/01/07 07:27:44;;;;;;;25.13;17.85;;;;;;;;;;2062496;28;20497;-77
2024/01/07 07:29:05;;;;;;;29.80;20.05;;;;;;;;;;2069270;28;20037;-77
2024/01/07 07:30:26;;;;;;;23.98;17.30;;;;;;;;;;2071935;28;20034;-76
2024/01/07 07:31:47;;;;;;;28.92;19.77;;;;;;;;;;2068686;28;20038;-77
2024/01/07 07:33:08;;;;;;;26.45;18.55;;;;;;;;;;2069417;28;20144;-76
2024/01/07 07:34:29;;;;;;;32.63;19.40;;;;;;;;;;2062230;28;20360;-77
2024/01/07 07:35:50;;;;;;;25.30;16.65;;;;;;;;;;2069583;28;20026;-77
2024/01/07 07:37:11;;;;;;;27.42;18.20;;;;;;;;;;2065740;28;20241;-77
2024/01/07 07:38:32;;;;;;;26.05;17.52;;;;;;;;;;2069841;28;20404;-77
2024/01/07 07:39:53;;;;;;;26.05;17.40;;;;;;;;;;2066712;28;20031;-76
2024/01/07 07:41:14;;;;;;;23.90;17.25;;;;;;;;;;2061256;28;20038;-77
2024/01/07 07:42:35;;;;;;;29.88;18.58;;;;;;;;;;2065094;28;20467;-77
2024/01/07 07:43:55;;;;;;;25.80;18.05;;;;;;;;;;2065299;28;20043;-77
2024/01/07 07:45:16;;;;;;;30.13;17.75;;;;;;;;;;2072038;28;20398;-77
2024/01/07 07:46:37;;;;;;;30.95;18.30;;;;;;;;;;2068116;28;20030;-77
2024/01/07 07:47:58;;;;;;;25.33;17.77;;;;;;;;;;2071381;28;20320;-77
2024/01/07 07:49:19;;;;;;;25.10;16.45;;;;;;;;;;2072185;28;20084;-76
2024/01/07 07:50:40;;;;;;;28.30;17.65;;;;;;;;;;2063197;28;20026;-77
2024/01/07 07:52:01;;;;;;;33.83;18.70;;;;;;;;;;2066386;28;20100;-75